createdAt,value
2022-10-23T00:00:33.776Z,21.00
2022-10-23T00:03:41.021Z,20.90
2022-10-23T00:06:51.316Z,20.90
2022-10-23T00:09:58.832Z,20.80
2022-10-23T00:13:06.073Z,20.90
2022-10-23T00:16:13.776Z,20.80
2022-10-23T00:19:21.163Z,20.80
2022-10-23T00:22:31.277Z,20.70
2022-10-23T00:25:39.197Z,20.80
2022-10-23T00:28:46.338Z,20.80
2022-10-23T00:31:53.448Z,20.70
2022-10-23T00:35:00.552Z,20.70
2022-10-23T00:38:10.907Z,20.70
2022-10-23T00:41:20.417Z,20.60
2022-10-23T00:44:46.196Z,20.60
2022-10-23T00:47:53.553Z,20.60
2022-10-23T00:50:59.133Z,20.60
2022-10-23T00:54:23.414Z,20.60
2022-10-23T00:57:32.111Z,20.60
2022-10-23T01:00:45.206Z,20.60
2022-10-23T01:03:52.971Z,20.60
2022-10-23T01:07:02.875Z,20.50
2022-10-23T01:10:14.853Z,20.50
2022-10-23T01:13:26.887Z,20.50
2022-10-23T01:16:37.962Z,20.50
2022-10-23T01:19:53.015Z,20.50
2022-10-23T01:23:14.603Z,20.50
2022-10-23T01:26:29.370Z,20.50
2022-10-23T01:29:41.250Z,20.40
2022-10-23T01:32:51.095Z,20.40
2022-10-23T01:36:02.247Z,20.40
2022-10-23T01:39:10.951Z,20.40
2022-10-23T01:42:21.484Z,20.40
2022-10-23T01:45:34.025Z,20.40
2022-10-23T01:48:41.515Z,20.30
2022-10-23T01:51:50.738Z,20.30
2022-10-23T01:55:00.095Z,20.30
2022-10-23T01:58:08.940Z,20.30
2022-10-23T02:01:19.871Z,20.30
2022-10-23T02:04:30.606Z,20.30
2022-10-23T02:07:38.373Z,20.20
2022-10-23T02:10:48.942Z,20.20
2022-10-23T02:13:58.797Z,20.30
2022-10-23T02:17:11.986Z,20.20
2022-10-23T02:20:23.004Z,20.20
2022-10-23T02:23:32.858Z,20.20
2022-10-23T02:26:42.457Z,20.30
2022-10-23T02:29:51.486Z,20.10
2022-10-23T02:33:02.011Z,20.20
2022-10-23T02:36:09.377Z,20.20
2022-10-23T02:39:16.598Z,20.10
2022-10-23T02:42:26.585Z,20.10
2022-10-23T02:45:37.126Z,20.10
2022-10-23T02:48:51.044Z,20.10
2022-10-23T02:52:02.345Z,20.10
2022-10-23T02:55:14.725Z,20.10
2022-10-23T02:58:23.929Z,20.10
2022-10-23T03:01:32.846Z,20.10
2022-10-23T03:04:43.575Z,20.10
2022-10-23T03:07:50.665Z,20.10
2022-10-23T03:10:57.976Z,20.10
2022-10-23T03:14:05.317Z,20.00
2022-10-23T03:17:12.947Z,20.00
2022-10-23T03:20:23.192Z,20.00
2022-10-23T03:23:30.720Z,20.00
2022-10-23T03:26:37.990Z,20.00
2022-10-23T03:29:45.230Z,20.00
2022-10-23T03:32:52.459Z,20.00
2022-10-23T03:36:02.392Z,20.00
2022-10-23T03:39:09.601Z,20.00
2022-10-23T03:42:17.048Z,20.00
2022-10-23T03:45:24.197Z,20.00
2022-10-23T03:48:32.906Z,20.00
2022-10-23T03:51:44.298Z,19.90
2022-10-23T03:54:51.649Z,20.00
2022-10-23T03:57:58.840Z,19.90
2022-10-23T04:01:06.331Z,19.90
2022-10-23T04:04:13.762Z,19.90
2022-10-23T04:07:23.815Z,19.90
2022-10-23T04:10:30.972Z,19.90
2022-10-23T04:13:38.187Z,19.90
2022-10-23T04:16:45.697Z,19.90
2022-10-23T04:19:52.967Z,19.80
2022-10-23T04:23:03.160Z,19.90
2022-10-23T04:26:10.589Z,19.90
2022-10-23T04:29:17.918Z,19.90
2022-10-23T04:32:25.231Z,19.80
2022-10-23T04:35:32.332Z,19.80
2022-10-23T04:38:42.450Z,19.80
2022-10-23T04:41:49.707Z,19.80
2022-10-23T04:44:56.958Z,19.80
2022-10-23T04:48:04.146Z,19.80
2022-10-23T04:51:11.414Z,19.80
2022-10-23T04:54:21.409Z,19.80
2022-10-23T04:57:28.692Z,19.70
2022-10-23T05:00:36.027Z,19.70
2022-10-23T05:03:44.371Z,19.80
2022-10-23T05:06:51.781Z,19.70
2022-10-23T05:10:01.875Z,19.70
2022-10-23T05:13:09.390Z,19.70
2022-10-23T05:16:23.769Z,19.70
2022-10-23T05:19:30.305Z,19.70
2022-10-23T05:22:39.755Z,19.70
2022-10-23T05:25:47.592Z,19.70
2022-10-23T05:28:54.794Z,19.70
2022-10-23T05:32:04.428Z,19.70
2022-10-23T05:35:12.696Z,19.70
2022-10-23T05:38:19.895Z,19.60
2022-10-23T05:41:30.014Z,19.70
2022-10-23T05:44:37.410Z,19.60
2022-10-23T05:47:46.946Z,19.60
2022-10-23T05:50:54.336Z,19.60
2022-10-23T05:54:01.774Z,19.60
2022-10-23T05:57:12.035Z,19.60
2022-10-23T06:00:19.291Z,19.60
2022-10-23T06:03:26.490Z,19.60
2022-10-23T06:06:33.917Z,19.60
2022-10-23T06:09:41.279Z,19.60
2022-10-23T06:12:51.161Z,19.60
2022-10-23T06:15:58.208Z,19.60
2022-10-23T06:19:05.283Z,19.60
2022-10-23T06:22:13.019Z,19.60
2022-10-23T06:25:20.394Z,19.60
2022-10-23T06:28:30.668Z,19.60
2022-10-23T06:31:37.890Z,19.60
2022-10-23T06:34:45.283Z,19.60
2022-10-23T06:37:52.365Z,19.60
2022-10-23T06:41:00.051Z,19.60
2022-10-23T06:44:10.512Z,19.60
2022-10-23T06:50:31.428Z,19.60
2022-10-23T06:53:39.216Z,19.60
2022-10-23T06:56:48.515Z,19.60
2022-10-23T06:59:58.625Z,19.60
2022-10-23T07:03:06.241Z,19.60
2022-10-23T07:06:13.808Z,19.50
2022-10-23T07:09:21.079Z,19.60
2022-10-23T07:12:28.259Z,19.50
2022-10-23T07:15:38.193Z,19.60
2022-10-23T07:18:45.543Z,19.60
2022-10-23T07:21:53.721Z,19.50
2022-10-23T07:25:00.905Z,19.60
2022-10-23T07:28:08.548Z,19.50
2022-10-23T07:31:18.605Z,19.60
2022-10-23T07:34:26.010Z,19.50
2022-10-23T07:37:33.298Z,19.50
2022-10-23T07:40:40.577Z,19.50
2022-10-23T07:43:47.864Z,19.50
2022-10-23T07:46:57.889Z,19.50
2022-10-23T07:50:05.063Z,19.50
2022-10-23T07:53:17.941Z,19.50
2022-10-23T07:56:26.592Z,19.40
2022-10-23T07:59:37.181Z,19.50
2022-10-23T08:02:48.101Z,19.50
2022-10-23T08:05:55.783Z,19.40
2022-10-23T08:09:06.252Z,19.50
2022-10-23T08:12:14.139Z,19.50
2022-10-23T08:15:21.267Z,19.50
2022-10-23T08:18:31.341Z,19.50
2022-10-23T08:21:38.741Z,19.50
2022-10-23T08:24:46.049Z,19.50
2022-10-23T08:27:53.264Z,19.40
2022-10-23T08:31:00.890Z,19.40
2022-10-23T08:34:11.042Z,19.40
2022-10-23T08:37:18.096Z,19.40
2022-10-23T08:40:26.417Z,19.40
2022-10-23T08:43:38.260Z,19.40
2022-10-23T08:46:47.422Z,19.40
2022-10-23T08:50:00.154Z,19.40
2022-10-23T08:53:09.331Z,19.40
2022-10-23T08:56:28.776Z,19.40
2022-10-23T08:59:40.336Z,19.30
2022-10-23T09:02:49.133Z,19.40
2022-10-23T09:06:07.784Z,19.40
2022-10-23T09:09:26.192Z,19.50
2022-10-23T09:12:33.964Z,19.50
2022-10-23T09:15:44.808Z,19.60
2022-10-23T09:18:52.783Z,19.50
2022-10-23T09:22:02.988Z,19.50
2022-10-23T09:25:12.097Z,19.40
2022-10-23T09:28:22.170Z,19.40
2022-10-23T09:31:29.512Z,19.40
2022-10-23T09:34:38.066Z,19.40
2022-10-23T09:37:53.535Z,19.40
2022-10-23T09:41:02.041Z,19.40
2022-10-23T09:44:18.757Z,19.40
2022-10-23T09:47:28.319Z,19.30
2022-10-23T09:50:36.032Z,19.40
2022-10-23T09:53:53.329Z,19.30
2022-10-23T09:57:01.841Z,19.30
2022-10-23T10:00:18.361Z,19.30
2022-10-23T10:03:26.498Z,19.40
2022-10-23T10:06:34.427Z,19.40
2022-10-23T10:09:44.365Z,19.30
2022-10-23T10:12:53.338Z,19.30
2022-10-23T10:16:02.034Z,19.30
2022-10-23T10:19:15.276Z,19.30
2022-10-23T10:22:29.316Z,19.30
2022-10-23T10:25:40.834Z,19.30
2022-10-23T10:28:53.786Z,19.30
2022-10-23T10:32:07.020Z,19.30
2022-10-23T10:35:24.985Z,19.30
2022-10-23T10:38:39.797Z,19.30
2022-10-23T10:41:53.420Z,19.30
2022-10-23T10:45:08.200Z,19.30
2022-10-23T10:48:31.194Z,19.40
2022-10-23T10:51:42.838Z,19.30
2022-10-23T10:54:55.016Z,19.30
2022-10-23T10:58:08.031Z,19.30
2022-10-23T11:01:19.138Z,19.30
2022-10-23T11:04:33.085Z,19.40
2022-10-23T11:07:42.195Z,19.30
2022-10-23T11:10:50.606Z,19.30
2022-10-23T11:14:00.615Z,19.30
2022-10-23T11:17:12.585Z,19.40
2022-10-23T11:20:27.610Z,19.30
2022-10-23T11:23:51.333Z,19.30
2022-10-23T11:27:05.131Z,19.30
2022-10-23T11:30:30.151Z,19.30
2022-10-23T11:33:56.131Z,19.30
2022-10-23T11:37:09.233Z,19.30
2022-10-23T11:40:22.000Z,19.40
2022-10-23T11:43:29.752Z,19.30
2022-10-23T11:46:38.452Z,19.30
2022-10-23T11:49:45.725Z,19.30
2022-10-23T11:53:16.616Z,19.30
2022-10-23T11:56:28.443Z,19.40
2022-10-23T11:59:37.351Z,19.30
2022-10-23T12:02:47.087Z,19.40
2022-10-23T12:06:04.920Z,19.50
2022-10-23T12:09:25.518Z,19.50
2022-10-23T12:12:41.496Z,19.50
2022-10-23T12:16:00.121Z,19.50
2022-10-23T12:19:22.639Z,19.50
2022-10-23T12:26:00.206Z,19.60
2022-10-23T12:29:15.385Z,19.60
2022-10-23T12:32:25.526Z,19.60
2022-10-23T12:36:03.676Z,19.60
2022-10-23T12:39:26.130Z,19.60
2022-10-23T12:42:37.401Z,19.60
2022-10-23T12:45:46.607Z,19.60
2022-10-23T12:48:54.823Z,19.60
2022-10-23T12:52:03.797Z,19.60
2022-10-23T12:55:15.977Z,19.60
2022-10-23T12:58:30.289Z,19.60
2022-10-23T13:01:40.371Z,19.60
2022-10-23T13:04:52.746Z,19.60
2022-10-23T13:08:01.185Z,19.60
2022-10-23T13:11:09.566Z,19.60
2022-10-23T13:14:18.183Z,19.60
2022-10-23T13:17:36.454Z,19.60
2022-10-23T13:20:47.288Z,19.60
2022-10-23T13:23:56.762Z,19.60
2022-10-23T13:27:06.242Z,19.60
2022-10-23T13:30:30.016Z,19.60
2022-10-23T13:33:42.530Z,19.60
2022-10-23T13:36:58.572Z,19.60
2022-10-23T13:40:10.888Z,19.60
2022-10-23T13:43:21.399Z,19.60
2022-10-23T13:46:30.773Z,19.60
2022-10-23T13:49:41.625Z,19.60
2022-10-23T13:52:50.669Z,19.60
2022-10-23T13:55:59.696Z,19.60
2022-10-23T13:59:08.380Z,19.60
2022-10-23T14:02:21.185Z,19.60
2022-10-23T14:05:31.406Z,19.60
2022-10-23T14:08:39.007Z,19.60
2022-10-23T14:11:46.442Z,19.70
2022-10-23T14:14:54.196Z,19.60
2022-10-23T14:18:04.591Z,19.60
2022-10-23T14:21:20.144Z,19.60
2022-10-23T14:24:27.587Z,19.60
2022-10-23T14:27:35.094Z,19.60
2022-10-23T14:30:42.205Z,19.60
2022-10-23T14:33:49.881Z,19.60
2022-10-23T14:37:15.157Z,19.60
2022-10-23T14:40:22.430Z,19.60
2022-10-23T14:43:29.660Z,19.60
2022-10-23T14:46:38.747Z,19.70
2022-10-23T14:49:46.808Z,19.60
2022-10-23T14:52:56.796Z,19.60
2022-10-23T14:56:04.607Z,19.60
2022-10-23T14:59:13.651Z,19.60
2022-10-23T15:02:21.251Z,19.60
2022-10-23T15:05:29.069Z,19.60
2022-10-23T15:08:39.539Z,19.60
2022-10-23T15:11:46.650Z,19.60
2022-10-23T15:14:53.704Z,19.60
2022-10-23T15:18:00.798Z,19.60
2022-10-23T15:21:08.651Z,19.60
2022-10-23T15:24:18.841Z,19.60
2022-10-23T15:27:26.207Z,19.60
2022-10-23T15:30:33.321Z,19.70
2022-10-23T15:33:41.625Z,19.70
2022-10-23T15:36:49.961Z,19.60
2022-10-23T15:40:02.196Z,19.60
2022-10-23T15:43:13.049Z,19.60
2022-10-23T15:46:20.442Z,19.70
2022-10-23T15:49:26.052Z,19.60
2022-10-23T15:52:33.341Z,19.60
2022-10-23T15:55:41.245Z,19.70
2022-10-23T15:58:48.498Z,19.60
2022-10-23T16:01:56.196Z,19.70
2022-10-23T16:05:03.660Z,19.70
2022-10-23T16:08:11.035Z,19.60
2022-10-23T16:11:22.732Z,19.70
2022-10-23T16:14:29.959Z,19.70
2022-10-23T16:17:37.328Z,19.70
2022-10-23T16:20:44.723Z,19.60
2022-10-23T16:23:57.502Z,19.60
2022-10-23T16:27:10.577Z,19.60
2022-10-23T16:30:18.012Z,19.70
2022-10-23T16:33:25.306Z,19.60
2022-10-23T16:36:33.054Z,19.60
2022-10-23T16:39:40.605Z,19.60
2022-10-23T16:42:50.716Z,19.60
2022-10-23T16:46:06.674Z,19.60
2022-10-23T16:49:14.686Z,19.60
2022-10-23T16:52:22.001Z,19.60
2022-10-23T16:55:29.407Z,19.60
2022-10-23T16:58:41.117Z,19.60
2022-10-23T17:01:48.614Z,19.60
2022-10-23T17:04:56.087Z,19.60
2022-10-23T17:08:03.902Z,19.60
2022-10-23T17:11:13.485Z,19.60
2022-10-23T17:14:29.102Z,19.60
2022-10-23T17:17:36.205Z,19.60
2022-10-23T17:20:43.403Z,19.60
2022-10-23T17:23:51.384Z,19.60
2022-10-23T17:26:59.694Z,19.60
2022-10-23T17:30:12.790Z,19.60
2022-10-23T17:33:20.347Z,19.60
2022-10-23T17:36:28.630Z,19.60
2022-10-23T17:39:36.109Z,19.60
2022-10-23T17:42:43.844Z,19.60
2022-10-23T17:45:53.957Z,19.60
2022-10-23T17:52:12.563Z,19.80
2022-10-23T17:55:19.898Z,19.90
2022-10-23T17:58:27.227Z,20.00
2022-10-23T18:01:37.523Z,20.00
2022-10-23T18:04:45.008Z,20.00
2022-10-23T18:07:55.525Z,20.10
2022-10-23T18:11:04.643Z,20.10
2022-10-23T18:14:09.719Z,20.20
2022-10-23T18:17:19.613Z,20.30
2022-10-23T18:20:27.319Z,20.30
2022-10-23T18:23:35.227Z,20.20
2022-10-23T18:26:43.919Z,20.30
2022-10-23T18:29:51.363Z,20.30
2022-10-23T18:33:01.783Z,20.30
2022-10-23T18:36:15.454Z,20.20
2022-10-23T18:39:24.449Z,20.30
2022-10-23T18:42:32.424Z,20.30
2022-10-23T18:45:39.974Z,20.30
2022-10-23T18:48:53.876Z,20.30
2022-10-23T18:52:01.559Z,20.30
2022-10-23T18:55:09.491Z,20.30
2022-10-23T18:58:16.851Z,20.20
2022-10-23T19:01:24.549Z,20.20
2022-10-23T19:04:36.514Z,20.10
2022-10-23T19:07:46.899Z,20.10
2022-10-23T19:10:55.226Z,20.10
2022-10-23T19:14:02.368Z,20.10
2022-10-23T19:17:11.407Z,20.10
2022-10-23T19:20:23.629Z,20.10
2022-10-23T19:23:32.417Z,20.10
2022-10-23T19:26:40.892Z,20.10
2022-10-23T19:29:49.490Z,20.10
2022-10-23T19:32:57.091Z,20.10
2022-10-23T19:36:14.353Z,20.00
2022-10-23T19:39:22.421Z,20.00
2022-10-23T19:42:29.948Z,20.00
2022-10-23T19:45:37.774Z,20.00
2022-10-23T19:48:46.985Z,20.00
2022-10-23T19:51:57.259Z,20.00
2022-10-23T19:55:05.759Z,19.90
2022-10-23T19:58:13.264Z,19.90
2022-10-23T20:01:21.690Z,19.90
2022-10-23T20:04:31.913Z,19.90
2022-10-23T20:07:43.152Z,19.90
2022-10-23T20:10:50.747Z,20.00
2022-10-23T20:13:56.070Z,20.00
2022-10-23T20:17:03.204Z,20.00
2022-10-23T20:20:10.610Z,20.10
2022-10-23T20:23:21.316Z,20.10
2022-10-23T20:26:29.114Z,20.10
2022-10-23T20:29:36.508Z,20.10
2022-10-23T20:32:44.017Z,20.10
2022-10-23T20:35:53.092Z,20.10
2022-10-23T20:39:04.581Z,20.10
2022-10-23T20:42:12.377Z,20.10
2022-10-23T20:45:19.859Z,20.20
2022-10-23T20:48:28.034Z,20.20
2022-10-23T20:51:36.031Z,20.10
2022-10-23T20:54:46.927Z,20.10
2022-10-23T20:57:54.892Z,20.10
2022-10-23T21:01:05.347Z,20.10
2022-10-23T21:04:14.733Z,20.00
2022-10-23T21:07:22.417Z,20.00
2022-10-23T21:10:32.581Z,19.90
2022-10-23T21:13:39.788Z,19.90
2022-10-23T21:16:47.350Z,19.80
2022-10-23T21:19:54.622Z,19.80
2022-10-23T21:23:02.008Z,19.80
2022-10-23T21:26:12.175Z,19.80
2022-10-23T21:29:20.358Z,19.80
2022-10-23T21:32:27.779Z,19.80
2022-10-23T21:35:36.133Z,19.80
2022-10-23T21:38:45.340Z,19.70
2022-10-23T21:41:55.360Z,19.70
2022-10-23T21:45:03.368Z,19.70
2022-10-23T21:48:08.608Z,19.70
2022-10-23T21:51:18.170Z,19.70
2022-10-23T21:54:26.382Z,19.70
2022-10-23T21:57:37.301Z,19.80
2022-10-23T22:00:44.567Z,19.80
2022-10-23T22:03:52.348Z,19.80
2022-10-23T22:07:02.950Z,19.80
2022-10-23T22:10:10.654Z,19.80
2022-10-23T22:13:20.901Z,19.90
2022-10-23T22:16:28.190Z,19.80
2022-10-23T22:19:35.658Z,19.80
2022-10-23T22:22:40.981Z,19.70
2022-10-23T22:25:48.190Z,19.60
2022-10-23T22:28:59.455Z,19.60
2022-10-23T22:32:06.644Z,19.60
2022-10-23T22:35:13.753Z,19.60
2022-10-23T22:38:21.007Z,19.60
2022-10-23T22:41:28.227Z,19.60
2022-10-23T22:44:38.305Z,19.50
2022-10-23T22:47:45.573Z,19.50
2022-10-23T22:50:52.961Z,19.50
2022-10-23T22:54:01.389Z,19.50
2022-10-23T22:57:08.622Z,19.50
2022-10-23T23:00:19.318Z,19.50
2022-10-23T23:03:26.795Z,19.40
2022-10-23T23:06:36.065Z,19.40
2022-10-23T23:09:44.526Z,19.30
2022-10-23T23:12:53.195Z,19.30
2022-10-23T23:16:03.231Z,19.30
2022-10-23T23:19:10.345Z,19.30
2022-10-23T23:22:17.863Z,19.30
2022-10-23T23:25:25.127Z,19.30
2022-10-23T23:28:32.293Z,19.30
2022-10-23T23:31:42.216Z,19.30
2022-10-23T23:34:49.234Z,19.30
2022-10-23T23:37:56.462Z,19.30
2022-10-23T23:41:03.731Z,19.30
2022-10-23T23:44:11.078Z,19.30
2022-10-23T23:47:21.059Z,19.30
2022-10-23T23:50:28.647Z,19.30
2022-10-23T23:53:36.026Z,19.20
2022-10-23T23:56:43.444Z,19.30
2022-10-23T23:59:50.852Z,19.20
